createdAt,value
2022-11-07T00:00:18.816Z,25.20
2022-11-07T00:02:46.047Z,24.80
2022-11-07T00:05:19.794Z,21.83
2022-11-07T00:07:47.026Z,29.92
2022-11-07T00:10:14.234Z,22.05
2022-11-07T00:12:47.874Z,26.92
2022-11-07T00:15:15.144Z,26.75
2022-11-07T00:17:42.322Z,29.38
2022-11-07T00:20:16.752Z,26.77
2022-11-07T00:22:44.037Z,26.17
2022-11-07T00:25:17.875Z,30.50
2022-11-07T00:27:45.019Z,22.85
2022-11-07T00:30:12.465Z,17.65
2022-11-07T00:32:45.740Z,25.60
2022-11-07T00:35:12.835Z,21.00
2022-11-07T00:37:46.917Z,28.17
2022-11-07T00:40:14.023Z,18.80
2022-11-07T00:42:41.484Z,19.92
2022-11-07T00:45:15.728Z,26.50
2022-11-07T00:47:42.932Z,18.92
2022-11-07T00:50:16.867Z,19.85
2022-11-07T00:52:44.059Z,20.92
2022-11-07T00:55:11.153Z,20.67
2022-11-07T00:57:44.748Z,17.58
2022-11-07T01:00:18.721Z,19.90
2022-11-07T01:03:18.981Z,22.17
2022-11-07T01:05:55.649Z,16.42
2022-11-07T01:08:29.773Z,15.80
2022-11-07T01:10:57.399Z,19.73
2022-11-07T01:15:58.775Z,19.10
2022-11-07T01:18:26.138Z,21.13
2022-11-07T01:20:59.790Z,26.25
2022-11-07T01:23:26.884Z,21.02
2022-11-07T01:25:54.070Z,24.98
2022-11-07T01:28:27.750Z,18.75
2022-11-07T01:30:54.856Z,18.92
2022-11-07T01:33:28.779Z,22.95
2022-11-07T01:35:55.910Z,18.73
2022-11-07T01:38:23.168Z,26.20
2022-11-07T01:41:15.776Z,22.63
2022-11-07T01:43:46.066Z,25.02
2022-11-07T01:46:19.923Z,29.35
2022-11-07T01:49:07.929Z,14.82
2022-11-07T01:51:44.855Z,19.13
2022-11-07T01:54:19.697Z,19.95
2022-11-07T01:56:53.797Z,17.05
2022-11-07T01:59:29.755Z,21.55
2022-11-07T02:02:11.070Z,17.08
2022-11-07T02:04:38.361Z,20.15
2022-11-07T02:07:09.107Z,17.10
2022-11-07T02:09:42.753Z,14.32
2022-11-07T02:12:10.009Z,12.32
2022-11-07T02:14:43.876Z,19.25
2022-11-07T02:17:11.868Z,14.70
2022-11-07T02:19:51.180Z,23.40
2022-11-07T02:22:37.107Z,15.55
2022-11-07T02:25:12.944Z,18.48
2022-11-07T02:27:40.850Z,21.52
2022-11-07T02:30:10.926Z,20.67
2022-11-07T02:32:44.785Z,13.73
2022-11-07T02:35:30.412Z,17.10
2022-11-07T02:38:03.835Z,23.52
2022-11-07T02:40:31.405Z,17.23
2022-11-07T02:45:33.853Z,16.70
2022-11-07T02:48:07.890Z,17.10
2022-11-07T02:50:35.061Z,16.85
2022-11-07T02:53:09.029Z,17.88
2022-11-07T02:55:36.265Z,21.83
2022-11-07T02:58:03.412Z,16.92
2022-11-07T03:00:36.806Z,13.55
2022-11-07T03:03:03.957Z,18.33
2022-11-07T03:05:37.961Z,19.08
2022-11-07T03:08:05.201Z,15.23
2022-11-07T03:10:32.461Z,16.48
2022-11-07T03:13:05.816Z,13.32
2022-11-07T03:15:32.914Z,15.35
2022-11-07T03:18:06.970Z,14.02
2022-11-07T03:20:34.153Z,13.43
2022-11-07T03:23:01.358Z,16.00
2022-11-07T03:25:34.900Z,18.05
2022-11-07T03:28:02.045Z,14.98
2022-11-07T03:30:35.851Z,12.35
2022-11-07T03:33:02.950Z,15.68
2022-11-07T03:35:30.064Z,13.90
2022-11-07T03:38:03.935Z,21.45
2022-11-07T03:40:31.085Z,18.35
2022-11-07T03:42:58.229Z,16.10
2022-11-07T03:45:31.824Z,13.85
2022-11-07T03:47:58.956Z,17.17
2022-11-07T03:50:32.937Z,14.38
2022-11-07T03:53:00.228Z,16.90
2022-11-07T03:55:27.449Z,16.40
2022-11-07T03:58:00.824Z,10.60
2022-11-07T04:00:34.806Z,15.57
2022-11-07T04:03:16.202Z,13.93
2022-11-07T04:05:43.798Z,14.63
2022-11-07T04:08:11.026Z,12.68
2022-11-07T04:10:44.936Z,15.93
2022-11-07T04:13:30.928Z,13.00
2022-11-07T04:16:23.820Z,16.98
2022-11-07T04:18:50.921Z,13.35
2022-11-07T04:21:24.927Z,15.10
2022-11-07T04:23:52.038Z,10.07
2022-11-07T04:26:45.072Z,15.95
2022-11-07T04:29:12.191Z,9.68
2022-11-07T04:31:39.410Z,9.70
2022-11-07T04:34:12.822Z,16.20
2022-11-07T04:36:39.972Z,16.20
2022-11-07T04:39:13.964Z,11.48
2022-11-07T04:41:41.067Z,12.80
2022-11-07T04:44:08.516Z,11.77
2022-11-07T04:46:41.849Z,15.38
2022-11-07T04:49:08.945Z,9.60
2022-11-07T04:51:48.866Z,13.32
2022-11-07T04:54:16.056Z,11.30
2022-11-07T04:56:43.259Z,19.70
2022-11-07T04:59:16.815Z,10.05
2022-11-07T05:01:53.005Z,12.15
2022-11-07T05:04:26.874Z,10.70
2022-11-07T05:06:54.069Z,7.70
2022-11-07T05:09:21.343Z,11.73
2022-11-07T05:11:57.814Z,11.55
2022-11-07T05:14:25.043Z,6.25
2022-11-07T05:16:59.980Z,9.02
2022-11-07T05:19:27.283Z,10.38
2022-11-07T05:22:20.084Z,10.15
2022-11-07T05:24:47.241Z,8.73
2022-11-07T05:27:18.889Z,10.02
2022-11-07T05:29:52.898Z,12.25
2022-11-07T05:32:20.160Z,6.32
2022-11-07T05:34:54.052Z,9.55
2022-11-07T05:37:21.368Z,9.90
2022-11-07T05:39:52.457Z,6.95
2022-11-07T05:42:28.914Z,8.55
2022-11-07T05:45:02.758Z,7.68
2022-11-07T05:47:36.949Z,6.95
2022-11-07T05:50:10.788Z,7.03
2022-11-07T05:52:38.268Z,6.38
2022-11-07T05:57:38.749Z,5.38
2022-11-07T06:00:13.362Z,13.32
2022-11-07T06:02:47.902Z,8.10
2022-11-07T06:05:15.270Z,6.78
2022-11-07T06:07:42.355Z,7.47
2022-11-07T06:10:16.837Z,12.48
2022-11-07T06:12:44.028Z,7.28
2022-11-07T06:15:17.900Z,6.20
2022-11-07T06:17:44.988Z,10.05
2022-11-07T06:20:12.189Z,6.88
2022-11-07T06:22:45.919Z,8.77
2022-11-07T06:25:19.872Z,4.55
2022-11-07T06:27:47.162Z,5.35
2022-11-07T06:30:14.307Z,6.40
2022-11-07T06:32:51.874Z,5.38
2022-11-07T06:35:19.098Z,7.03
2022-11-07T06:37:56.001Z,5.85
2022-11-07T06:40:23.189Z,6.05
2022-11-07T06:42:50.380Z,7.65
2022-11-07T06:45:23.914Z,6.05
2022-11-07T06:47:51.310Z,5.45
2022-11-07T06:50:30.878Z,4.00
2022-11-07T06:53:01.738Z,5.05
2022-11-07T06:55:28.989Z,3.22
2022-11-07T06:58:06.938Z,5.10
2022-11-07T07:00:48.988Z,5.63
2022-11-07T07:03:22.865Z,3.00
2022-11-07T07:05:56.913Z,2.55
2022-11-07T07:08:24.229Z,3.00
2022-11-07T07:10:51.507Z,3.70
2022-11-07T07:13:24.781Z,3.28
2022-11-07T07:15:55.929Z,1.73
2022-11-07T07:18:29.801Z,1.65
2022-11-07T07:21:09.968Z,3.50
2022-11-07T07:23:45.122Z,2.67
2022-11-07T07:26:16.545Z,1.85
2022-11-07T07:28:44.392Z,3.28
2022-11-07T07:31:17.945Z,2.38
2022-11-07T07:33:46.000Z,3.25
2022-11-07T07:36:21.090Z,1.50
2022-11-07T07:38:48.641Z,1.30
2022-11-07T07:41:15.970Z,1.77
2022-11-07T07:43:49.896Z,5.28
2022-11-07T07:46:20.217Z,2.40
2022-11-07T07:48:54.212Z,4.28
2022-11-07T07:51:22.024Z,2.08
2022-11-07T07:53:49.203Z,2.75
2022-11-07T07:56:23.934Z,6.22
2022-11-07T07:58:51.583Z,7.82
2022-11-07T08:01:31.139Z,17.13
2022-11-07T08:04:01.804Z,10.68
2022-11-07T08:06:30.019Z,13.50
2022-11-07T08:09:03.944Z,23.13
2022-11-07T08:11:31.094Z,21.83
2022-11-07T08:14:01.277Z,21.58
2022-11-07T08:16:36.023Z,19.60
2022-11-07T08:19:03.315Z,21.05
2022-11-07T08:21:30.391Z,22.95
2022-11-07T08:24:03.980Z,31.88
2022-11-07T08:26:31.425Z,29.35
2022-11-07T08:29:05.035Z,24.48
2022-11-07T08:31:32.227Z,21.08
2022-11-07T08:33:59.781Z,26.42
2022-11-07T08:39:01.207Z,33.80
2022-11-07T08:41:28.395Z,26.50
2022-11-07T08:44:01.894Z,31.50
2022-11-07T08:46:29.074Z,30.20
2022-11-07T08:49:02.932Z,24.00
2022-11-07T08:51:30.127Z,26.45
2022-11-07T08:53:57.273Z,34.17
2022-11-07T08:56:30.993Z,22.90
2022-11-07T08:58:58.279Z,25.92
2022-11-07T09:01:56.090Z,22.80
2022-11-07T09:04:26.328Z,27.92
2022-11-07T09:06:59.978Z,21.58
2022-11-07T09:09:28.471Z,25.75
2022-11-07T09:11:55.595Z,30.10
2022-11-07T09:14:29.039Z,26.45
2022-11-07T09:16:56.203Z,26.25
2022-11-07T09:19:29.934Z,24.98
2022-11-07T09:21:57.510Z,22.52
2022-11-07T09:26:57.961Z,26.83
2022-11-07T09:29:25.240Z,29.27
2022-11-07T09:32:02.465Z,27.55
2022-11-07T09:34:39.643Z,35.95
2022-11-07T09:39:46.952Z,24.50
2022-11-07T09:42:14.200Z,24.98
2022-11-07T09:44:42.163Z,20.75
2022-11-07T09:47:20.886Z,23.10
2022-11-07T09:49:50.702Z,17.95
2022-11-07T09:52:44.047Z,20.17
2022-11-07T09:55:24.078Z,21.67
2022-11-07T09:57:59.879Z,22.35
2022-11-07T10:00:47.849Z,21.48
2022-11-07T10:03:21.934Z,19.47
2022-11-07T10:05:55.268Z,19.55
2022-11-07T10:08:47.954Z,16.23
2022-11-07T10:11:21.470Z,21.33
2022-11-07T10:13:54.949Z,18.55
2022-11-07T10:16:33.818Z,21.63
2022-11-07T10:19:22.951Z,25.48
2022-11-07T10:21:53.246Z,16.70
2022-11-07T10:24:44.932Z,11.07
2022-11-07T10:27:12.191Z,12.25
2022-11-07T10:29:51.944Z,16.75
2022-11-07T10:32:19.632Z,6.53
2022-11-07T10:34:59.161Z,13.45
2022-11-07T10:37:26.365Z,7.97
2022-11-07T10:39:53.520Z,11.30
2022-11-07T10:42:27.951Z,8.13
2022-11-07T10:44:55.831Z,7.15
2022-11-07T10:47:31.090Z,7.75
2022-11-07T10:49:59.864Z,14.15
2022-11-07T10:52:35.425Z,11.10
2022-11-07T10:55:06.303Z,12.60
2022-11-07T10:57:42.129Z,13.30
2022-11-07T11:00:48.907Z,10.13
2022-11-07T11:03:43.198Z,9.93
2022-11-07T11:06:26.860Z,13.63
2022-11-07T11:09:01.047Z,7.30
2022-11-07T11:11:36.836Z,10.77
2022-11-07T11:14:10.929Z,5.55
2022-11-07T11:16:46.917Z,9.63
2022-11-07T11:19:36.964Z,9.40
2022-11-07T11:22:17.860Z,7.25
2022-11-07T11:24:45.208Z,9.25
2022-11-07T11:27:17.049Z,13.23
2022-11-07T11:29:55.046Z,10.50
2022-11-07T11:32:55.002Z,8.73
2022-11-07T11:35:22.176Z,10.68
2022-11-07T11:37:52.950Z,13.32
2022-11-07T11:40:29.186Z,9.57
2022-11-07T11:43:19.659Z,16.15
2022-11-07T11:46:01.068Z,16.50
2022-11-07T11:48:46.785Z,15.90
2022-11-07T11:51:26.992Z,14.57
2022-11-07T11:53:54.291Z,10.40
2022-11-07T11:56:41.973Z,14.90
2022-11-07T11:59:37.909Z,12.73
2022-11-07T12:02:19.348Z,13.60
2022-11-07T12:04:52.559Z,15.07
2022-11-07T12:07:27.005Z,10.43
2022-11-07T12:10:06.572Z,14.70
2022-11-07T12:12:52.967Z,12.82
2022-11-07T12:15:20.026Z,7.40
2022-11-07T12:18:17.332Z,12.88
2022-11-07T12:20:59.665Z,11.52
2022-11-07T12:23:44.045Z,13.10
2022-11-07T12:26:40.777Z,19.08
2022-11-07T12:29:30.977Z,12.57
2022-11-07T12:32:16.863Z,9.07
2022-11-07T12:35:22.963Z,12.75
2022-11-07T12:37:52.968Z,17.48
2022-11-07T12:40:45.042Z,14.40
2022-11-07T12:43:12.201Z,6.75
2022-11-07T12:46:09.995Z,10.18
2022-11-07T12:48:55.739Z,7.05
2022-11-07T12:51:47.071Z,14.88
2022-11-07T12:54:20.220Z,8.50
2022-11-07T12:56:56.267Z,14.57
2022-11-07T12:59:26.530Z,19.33
2022-11-07T13:02:16.176Z,7.15
2022-11-07T13:04:53.743Z,15.38
2022-11-07T13:07:37.022Z,10.95
2022-11-07T13:10:22.889Z,10.88
2022-11-07T13:13:00.003Z,10.88
2022-11-07T13:15:27.324Z,12.20
2022-11-07T13:18:00.981Z,13.45
2022-11-07T13:20:29.687Z,8.82
2022-11-07T13:23:05.011Z,9.35
2022-11-07T13:25:33.041Z,11.48
2022-11-07T13:28:07.992Z,10.98
2022-11-07T13:30:36.943Z,11.32
2022-11-07T13:33:11.091Z,6.95
2022-11-07T13:35:39.124Z,11.05
2022-11-07T13:38:19.146Z,7.95
2022-11-07T13:40:50.670Z,8.70
2022-11-07T13:43:43.071Z,8.88
2022-11-07T13:46:23.909Z,12.35
2022-11-07T13:49:00.024Z,10.98
2022-11-07T13:51:38.903Z,9.07
2022-11-07T13:54:13.254Z,12.57
2022-11-07T13:56:52.113Z,9.98
2022-11-07T13:59:41.069Z,15.35
2022-11-07T14:02:28.694Z,11.98
2022-11-07T14:05:19.518Z,12.02
2022-11-07T14:07:48.336Z,10.27
2022-11-07T14:10:58.011Z,7.03
2022-11-07T14:13:29.457Z,9.43
2022-11-07T14:16:03.994Z,9.73
2022-11-07T14:18:38.038Z,15.23
2022-11-07T14:21:11.975Z,18.45
2022-11-07T14:23:45.096Z,21.25
2022-11-07T14:26:33.066Z,19.33
2022-11-07T14:29:03.700Z,17.87
2022-11-07T14:31:39.025Z,20.92
2022-11-07T14:34:17.942Z,16.38
2022-11-07T14:36:58.994Z,28.27
2022-11-07T14:39:27.556Z,21.30
2022-11-07T14:42:03.208Z,17.48
2022-11-07T14:44:47.498Z,18.08
2022-11-07T14:47:39.213Z,23.02
2022-11-07T14:50:06.791Z,22.20
2022-11-07T14:55:10.078Z,29.55
2022-11-07T14:57:38.334Z,31.80
2022-11-07T15:00:13.062Z,26.52
2022-11-07T15:02:47.052Z,22.38
2022-11-07T15:05:31.074Z,22.02
2022-11-07T15:07:59.464Z,18.90
2022-11-07T15:10:34.998Z,21.67
2022-11-07T15:13:03.884Z,14.88
2022-11-07T15:15:42.057Z,22.73
2022-11-07T15:20:37.842Z,14.27
2022-11-07T15:23:13.033Z,23.73
2022-11-07T15:25:47.957Z,12.90
2022-11-07T15:28:18.493Z,21.80
2022-11-07T15:30:47.030Z,22.02
2022-11-07T15:33:21.049Z,17.25
2022-11-07T15:35:49.141Z,18.83
2022-11-07T15:38:27.075Z,22.98
2022-11-07T15:40:54.537Z,18.75
2022-11-07T15:43:22.314Z,18.80
2022-11-07T15:45:58.007Z,15.02
2022-11-07T15:48:28.851Z,22.13
2022-11-07T17:17:03.958Z,32.55
2022-11-07T17:19:45.030Z,34.10
2022-11-07T17:22:19.051Z,33.65
2022-11-07T17:24:46.342Z,37.50
2022-11-07T17:27:28.027Z,37.75
2022-11-07T17:29:55.303Z,30.67
2022-11-07T17:32:35.240Z,30.92
2022-11-07T17:35:31.151Z,37.63
2022-11-07T17:38:03.978Z,34.47
2022-11-07T17:40:39.004Z,35.00
2022-11-07T17:43:06.167Z,39.70
2022-11-07T17:45:33.314Z,26.92
2022-11-07T17:48:06.977Z,29.90
2022-11-07T17:50:34.357Z,32.95
2022-11-07T17:53:07.976Z,26.85
2022-11-07T17:55:35.311Z,30.80
2022-11-07T17:58:02.412Z,27.08
2022-11-07T18:00:43.189Z,29.92
2022-11-07T18:03:17.050Z,25.98
2022-11-07T18:05:51.164Z,31.20
2022-11-07T18:08:38.553Z,29.73
2022-11-07T18:11:13.269Z,34.75
2022-11-07T18:13:40.794Z,36.15
2022-11-07T18:16:08.981Z,37.38
2022-11-07T18:18:43.064Z,23.98
2022-11-07T18:21:10.677Z,29.10
2022-11-07T18:26:12.592Z,30.38
2022-11-07T18:28:40.982Z,34.05
2022-11-07T18:31:16.133Z,43.30
2022-11-07T18:33:43.534Z,29.38
2022-11-07T18:36:19.222Z,34.58
2022-11-07T18:38:47.185Z,30.45
2022-11-07T18:41:16.178Z,41.95
2022-11-07T18:43:50.091Z,40.42
2022-11-07T18:46:22.016Z,33.80
2022-11-07T18:48:57.115Z,32.67
2022-11-07T18:51:25.138Z,41.30
2022-11-07T18:53:53.133Z,38.95
2022-11-07T18:56:27.086Z,41.55
2022-11-07T18:58:55.392Z,35.70
2022-11-07T19:01:33.455Z,46.10
2022-11-07T19:04:03.613Z,32.85
2022-11-07T19:06:31.215Z,37.92
2022-11-07T19:11:33.958Z,37.85
2022-11-07T19:14:08.286Z,37.15
2022-11-07T19:16:35.464Z,37.97
2022-11-07T19:19:15.560Z,34.25
2022-11-07T19:21:50.143Z,41.63
2022-11-07T19:24:17.382Z,33.25
2022-11-07T19:26:44.739Z,47.00
2022-11-07T19:29:19.163Z,45.08
2022-11-07T19:31:46.678Z,42.58
2022-11-07T19:34:13.835Z,48.42
2022-11-07T19:36:47.114Z,43.25
2022-11-07T19:39:14.294Z,44.38
2022-11-07T19:41:48.059Z,30.33
2022-11-07T19:44:15.443Z,35.85
2022-11-07T19:46:42.604Z,36.30
2022-11-07T19:49:16.274Z,37.35
2022-11-07T19:51:43.745Z,44.45
2022-11-07T19:54:10.907Z,43.75
2022-11-07T19:56:45.165Z,53.13
2022-11-07T19:59:19.029Z,52.92
2022-11-07T20:02:04.166Z,38.42
2022-11-07T20:04:40.276Z,44.67
2022-11-07T20:07:07.472Z,45.08
2022-11-07T20:09:35.034Z,47.35
2022-11-07T20:12:09.266Z,51.08
2022-11-07T20:14:37.460Z,31.27
2022-11-07T20:17:05.175Z,46.22
2022-11-07T20:19:40.443Z,39.47
2022-11-07T20:22:08.009Z,44.80
2022-11-07T20:24:42.215Z,40.50
2022-11-07T20:27:09.493Z,36.03
2022-11-07T20:29:44.207Z,31.13
2022-11-07T20:32:12.057Z,46.25
2022-11-07T20:34:39.236Z,35.58
2022-11-07T20:37:13.144Z,36.03
2022-11-07T20:39:44.227Z,35.95
2022-11-07T20:42:11.335Z,47.85
2022-11-07T20:44:45.186Z,38.60
2022-11-07T20:47:12.898Z,44.90
2022-11-07T20:49:48.268Z,39.20
2022-11-07T20:52:30.187Z,44.85
2022-11-07T20:55:11.255Z,51.97
2022-11-07T20:57:38.569Z,44.88
2022-11-07T21:00:06.073Z,37.30
2022-11-07T21:02:40.368Z,42.00
2022-11-07T21:05:22.961Z,40.40
2022-11-07T21:07:57.133Z,43.25
2022-11-07T21:10:24.284Z,40.65
2022-11-07T21:12:58.080Z,38.80
2022-11-07T21:15:25.349Z,43.70
2022-11-07T21:18:06.177Z,36.58
2022-11-07T21:20:40.632Z,43.13
2022-11-07T21:23:15.555Z,40.72
2022-11-07T21:25:48.501Z,32.67
2022-11-07T21:28:26.038Z,44.42
2022-11-07T21:31:07.163Z,41.60
2022-11-07T21:33:34.622Z,42.13
2022-11-07T21:36:08.050Z,44.53
2022-11-07T21:38:35.270Z,51.55
2022-11-07T21:41:12.208Z,49.70
2022-11-07T21:43:39.559Z,38.88
2022-11-07T21:46:20.064Z,48.53
2022-11-07T21:48:54.221Z,56.50
2022-11-07T21:51:29.064Z,54.15
2022-11-07T21:53:56.668Z,41.65
2022-11-07T21:58:58.920Z,48.60
2022-11-07T22:01:33.202Z,63.35
2022-11-07T22:04:09.387Z,55.78
2022-11-07T22:06:45.046Z,55.40
2022-11-07T22:09:14.640Z,57.70
2022-11-07T22:11:49.203Z,67.68
2022-11-07T22:14:17.624Z,70.13
2022-11-07T22:16:44.878Z,55.17
2022-11-07T22:19:19.133Z,56.33
2022-11-07T22:21:53.171Z,59.85
2022-11-07T22:24:27.381Z,63.53
2022-11-07T22:26:55.795Z,53.58
2022-11-07T22:29:22.908Z,43.95
2022-11-07T22:31:56.325Z,52.47
2022-11-07T22:34:23.612Z,53.88
2022-11-07T22:36:50.778Z,55.78
2022-11-07T22:39:24.152Z,61.83
2022-11-07T22:41:51.408Z,43.13
2022-11-07T22:44:25.087Z,60.20
2022-11-07T22:46:52.417Z,55.75
2022-11-07T22:49:26.228Z,61.13
2022-11-07T22:51:53.499Z,53.83
2022-11-07T22:54:20.602Z,46.85
2022-11-07T22:56:54.119Z,45.90
2022-11-07T22:59:21.568Z,62.58
2022-11-07T23:01:55.354Z,56.95
2022-11-07T23:04:22.924Z,59.20
2022-11-07T23:06:50.051Z,53.53
2022-11-07T23:09:24.180Z,48.50
2022-11-07T23:11:51.370Z,61.45
2022-11-07T23:14:26.178Z,47.42
2022-11-07T23:16:55.526Z,59.13
2022-11-07T23:19:36.413Z,53.90
2022-11-07T23:22:03.924Z,43.95
2022-11-07T23:27:05.298Z,57.95
2022-11-07T23:29:32.546Z,46.97
2022-11-07T23:31:59.634Z,55.50
2022-11-07T23:34:33.167Z,55.90
2022-11-07T23:37:07.082Z,53.92
2022-11-07T23:39:41.565Z,56.83
2022-11-07T23:42:11.741Z,65.25
2022-11-07T23:45:04.353Z,63.05
2022-11-07T23:47:50.170Z,53.40
2022-11-07T23:50:43.325Z,61.58
2022-11-07T23:53:30.444Z,56.70
2022-11-07T23:56:04.421Z,58.38
2022-11-07T23:58:50.135Z,64.82
